METAR Data
IDs: Format: Raw Decoded Include TAF

Data at: 0047 UTC 24 May 2019

METAR for:PAAK (Atka Arpt, AK, US)
Text:PAAK 232356Z AUTO 06012G15KT 10SM FEW028 09/02 A3016 RMK AO2 SLP213 T00890022 10094 20056 58007
Temperature: 8.9°C ( 48°F)
Dewpoint: 2.2°C ( 36°F) [RH = 63%]
Pressure (altimeter):30.16 inches Hg (1021.4 mb) [Sea level pressure: 1021.3 mb]
Winds:from the ENE (60 degrees) at 14 MPH (12 knots; 6.2 m/s) gusting to 17 MPH (15 knots; 7.7 m/s)
Visibility:10 or more sm (16+ km)
Ceiling:at least 12,000 feet AGL
Clouds: few clouds at 2800 feet AGL
QC Flag:automated observation with no human augmentation
Text:PAAK 232256Z AUTO 08011G16KT 10SM CLR 09/01 A3017 RMK AO2 SLP218 T00890011
Temperature: 8.9°C ( 48°F)
Dewpoint: 1.1°C ( 34°F) [RH = 58%]
Pressure (altimeter):30.17 inches Hg (1021.8 mb) [Sea level pressure: 1021.8 mb]
Winds:from the E (80 degrees) at 13 MPH (11 knots; 5.7 m/s) gusting to 18 MPH (16 knots; 8.2 m/s)
Visibility:10 or more sm (16+ km)
Ceiling:at least 12,000 feet AGL
Clouds:sky clear below 12,000 feet AGL
QC Flag:automated observation with no human augmentation
Text:PAAK 232156Z AUTO 05013G24KT 10SM CLR 08/01 A3018 RMK AO2 SLP220 T00830011
Temperature: 8.3°C ( 47°F)
Dewpoint: 1.1°C ( 34°F) [RH = 60%]
Pressure (altimeter):30.18 inches Hg (1022.1 mb) [Sea level pressure: 1022.0 mb]
Winds:from the NE (50 degrees) at 15 MPH (13 knots; 6.7 m/s) gusting to 28 MPH (24 knots; 12.3 m/s)
Visibility:10 or more sm (16+ km)
Ceiling:at least 12,000 feet AGL
Clouds:sky clear below 12,000 feet AGL
QC Flag:automated observation with no human augmentation
Text:PAAK 232056Z AUTO 06012KT 10SM FEW030 08/02 A3018 RMK AO2 SLP220 T00830017 53003
Temperature: 8.3°C ( 47°F)
Dewpoint: 1.7°C ( 35°F) [RH = 63%]
Pressure (altimeter):30.18 inches Hg (1022.1 mb) [Sea level pressure: 1022.0 mb]
Winds:from the ENE (60 degrees) at 14 MPH (12 knots; 6.2 m/s)
Visibility:10 or more sm (16+ km)
Ceiling:at least 12,000 feet AGL
Clouds: few clouds at 3000 feet AGL
QC Flag:automated observation with no human augmentation
Text:PAAK 231956Z AUTO 06010KT 10SM SCT032 08/02 A3017 RMK AO2 SLP218 T00780017
Temperature: 7.8°C ( 46°F)
Dewpoint: 1.7°C ( 35°F) [RH = 65%]
Pressure (altimeter):30.17 inches Hg (1021.8 mb) [Sea level pressure: 1021.8 mb]
Winds:from the ENE (60 degrees) at 12 MPH (10 knots; 5.1 m/s)
Visibility:10 or more sm (16+ km)
Ceiling:at least 12,000 feet AGL
Clouds: scattered clouds at 3200 feet AGL
QC Flag:automated observation with no human augmentation
Text:PAAK 231937Z AUTO 06007KT 10SM SCT028 SCT033 08/02 A3017 RMK AO2
Temperature: 8.0°C ( 46°F)
Dewpoint: 2.0°C ( 36°F) [RH = 66%]
Pressure (altimeter):30.17 inches Hg (1021.8 mb)
Winds:from the ENE (60 degrees) at 8 MPH (7 knots; 3.6 m/s)
Visibility:10 or more sm (16+ km)
Ceiling:at least 12,000 feet AGL
Clouds: scattered clouds at 2800 feet AGL, scattered clouds at 3300 feet AGL
QC Flag:automated observation with no human augmentation
Text:PAAK 231856Z AUTO 07013KT 10SM BKN028 OVC035 07/03 A3017 RMK AO2 SLP217 T00670028
Temperature: 6.7°C ( 44°F)
Dewpoint: 2.8°C ( 37°F) [RH = 76%]
Pressure (altimeter):30.17 inches Hg (1021.8 mb) [Sea level pressure: 1021.7 mb]
Winds:from the ENE (70 degrees) at 15 MPH (13 knots; 6.7 m/s)
Visibility:10 or more sm (16+ km)
Ceiling:2800 feet AGL
Clouds: broken clouds at 2800 feet AGL, overcast cloud deck at 3500 feet AGL
QC Flag:automated observation with no human augmentation

TAF for:PAAK (Atka Arpt, AK, US)
Text:No data found